sensor_id;sensor_type;location;lat;lon;timestamp;P1;durP1;ratioP1;P2;durP2;ratioP2
11008;SDS011;5557;51.670;7.788;2024-02-26T00:02:25;2.97;;;2.87;;
11008;SDS011;5557;51.670;7.788;2024-02-26T00:04:52;2.80;;;2.57;;
11008;SDS011;5557;51.670;7.788;2024-02-26T00:07:21;2.43;;;2.33;;
11008;SDS011;5557;51.670;7.788;2024-02-26T00:09:48;2.77;;;2.67;;
11008;SDS011;5557;51.670;7.788;2024-02-26T00:12:15;2.63;;;2.43;;
11008;SDS011;5557;51.670;7.788;2024-02-26T00:14:43;2.70;;;2.50;;
11008;SDS011;5557;51.670;7.788;2024-02-26T00:17:13;9.43;;;2.60;;
11008;SDS011;5557;51.670;7.788;2024-02-26T00:19:40;2.63;;;2.53;;
11008;SDS011;5557;51.670;7.788;2024-02-26T00:22:07;2.70;;;2.50;;
11008;SDS011;5557;51.670;7.788;2024-02-26T00:24:36;2.30;;;2.20;;
11008;SDS011;5557;51.670;7.788;2024-02-26T00:27:07;2.50;;;2.40;;
11008;SDS011;5557;51.670;7.788;2024-02-26T00:29:36;1.90;;;1.80;;
11008;SDS011;5557;51.670;7.788;2024-02-26T00:32:03;2.40;;;2.30;;
11008;SDS011;5557;51.670;7.788;2024-02-26T00:34:34;2.30;;;2.20;;
11008;SDS011;5557;51.670;7.788;2024-02-26T00:37:09;1.97;;;1.87;;
11008;SDS011;5557;51.670;7.788;2024-02-26T00:39:36;2.30;;;2.20;;
11008;SDS011;5557;51.670;7.788;2024-02-26T00:42:07;2.37;;;2.27;;
11008;SDS011;5557;51.670;7.788;2024-02-26T00:44:35;2.30;;;2.20;;
11008;SDS011;5557;51.670;7.788;2024-02-26T00:47:02;2.30;;;2.20;;
11008;SDS011;5557;51.670;7.788;2024-02-26T00:49:30;2.30;;;2.20;;
11008;SDS011;5557;51.670;7.788;2024-02-26T00:51:57;2.27;;;2.17;;
11008;SDS011;5557;51.670;7.788;2024-02-26T00:54:31;1.80;;;1.70;;
11008;SDS011;5557;51.670;7.788;2024-02-26T00:56:59;1.80;;;1.70;;
11008;SDS011;5557;51.670;7.788;2024-02-26T00:59:26;4.70;;;2.17;;
11008;SDS011;5557;51.670;7.788;2024-02-26T01:01:54;1.67;;;1.57;;
11008;SDS011;5557;51.670;7.788;2024-02-26T01:04:21;2.83;;;2.30;;
11008;SDS011;5557;51.670;7.788;2024-02-26T01:06:51;2.13;;;1.93;;
11008;SDS011;5557;51.670;7.788;2024-02-26T01:09:18;2.00;;;1.90;;
11008;SDS011;5557;51.670;7.788;2024-02-26T01:11:45;1.97;;;1.87;;
11008;SDS011;5557;51.670;7.788;2024-02-26T01:14:13;1.70;;;1.60;;
11008;SDS011;5557;51.670;7.788;2024-02-26T01:16:41;1.60;;;1.50;;
11008;SDS011;5557;51.670;7.788;2024-02-26T01:19:08;1.90;;;1.80;;
11008;SDS011;5557;51.670;7.788;2024-02-26T01:21:35;2.20;;;2.07;;
11008;SDS011;5557;51.670;7.788;2024-02-26T01:24:06;2.33;;;2.13;;
11008;SDS011;5557;51.670;7.788;2024-02-26T01:26:35;1.77;;;1.67;;
11008;SDS011;5557;51.670;7.788;2024-02-26T01:29:02;5.90;;;2.03;;
11008;SDS011;5557;51.670;7.788;2024-02-26T01:31:29;1.60;;;1.50;;
11008;SDS011;5557;51.670;7.788;2024-02-26T01:34:00;2.03;;;1.93;;
11008;SDS011;5557;51.670;7.788;2024-02-26T01:36:28;1.70;;;1.60;;
11008;SDS011;5557;51.670;7.788;2024-02-26T01:38:55;1.80;;;1.70;;
11008;SDS011;5557;51.670;7.788;2024-02-26T01:41:23;1.97;;;1.50;;
11008;SDS011;5557;51.670;7.788;2024-02-26T01:43:50;1.43;;;1.33;;
11008;SDS011;5557;51.670;7.788;2024-02-26T01:46:17;1.90;;;1.80;;
11008;SDS011;5557;51.670;7.788;2024-02-26T01:48:44;1.67;;;1.57;;
11008;SDS011;5557;51.670;7.788;2024-02-26T01:51:14;1.40;;;1.30;;
11008;SDS011;5557;51.670;7.788;2024-02-26T01:53:44;2.60;;;1.43;;
11008;SDS011;5557;51.670;7.788;2024-02-26T01:56:14;2.53;;;1.90;;
11008;SDS011;5557;51.670;7.788;2024-02-26T01:58:43;1.60;;;1.50;;
11008;SDS011;5557;51.670;7.788;2024-02-26T02:01:10;1.43;;;1.33;;
11008;SDS011;5557;51.670;7.788;2024-02-26T02:03:38;1.90;;;1.80;;
11008;SDS011;5557;51.670;7.788;2024-02-26T02:06:08;1.47;;;1.37;;
11008;SDS011;5557;51.670;7.788;2024-02-26T02:08:36;2.70;;;1.90;;
11008;SDS011;5557;51.670;7.788;2024-02-26T02:11:04;1.43;;;1.33;;
11008;SDS011;5557;51.670;7.788;2024-02-26T02:13:33;1.67;;;1.57;;
11008;SDS011;5557;51.670;7.788;2024-02-26T02:16:00;1.60;;;1.50;;
11008;SDS011;5557;51.670;7.788;2024-02-26T02:18:28;1.77;;;1.67;;
11008;SDS011;5557;51.670;7.788;2024-02-26T02:20:55;7.13;;;1.80;;
11008;SDS011;5557;51.670;7.788;2024-02-26T02:23:29;4.57;;;1.40;;
11008;SDS011;5557;51.670;7.788;2024-02-26T02:25:57;2.80;;;1.87;;
11008;SDS011;5557;51.670;7.788;2024-02-26T02:28:25;2.07;;;1.40;;
11008;SDS011;5557;51.670;7.788;2024-02-26T02:30:54;1.40;;;1.30;;
11008;SDS011;5557;51.670;7.788;2024-02-26T02:33:23;3.60;;;1.57;;
11008;SDS011;5557;51.670;7.788;2024-02-26T02:35:58;9.43;;;1.67;;
11008;SDS011;5557;51.670;7.788;2024-02-26T02:38:25;1.80;;;1.70;;
11008;SDS011;5557;51.670;7.788;2024-02-26T02:40:52;1.40;;;1.30;;
11008;SDS011;5557;51.670;7.788;2024-02-26T02:43:19;2.73;;;1.70;;
11008;SDS011;5557;51.670;7.788;2024-02-26T02:45:46;1.40;;;1.30;;
11008;SDS011;5557;51.670;7.788;2024-02-26T02:48:13;1.47;;;1.37;;
11008;SDS011;5557;51.670;7.788;2024-02-26T02:50:40;1.00;;;1.00;;
11008;SDS011;5557;51.670;7.788;2024-02-26T02:53:08;1.20;;;1.10;;
11008;SDS011;5557;51.670;7.788;2024-02-26T02:55:36;1.40;;;1.30;;
11008;SDS011;5557;51.670;7.788;2024-02-26T02:58:06;1.50;;;1.20;;
11008;SDS011;5557;51.670;7.788;2024-02-26T03:00:33;1.17;;;1.07;;
11008;SDS011;5557;51.670;7.788;2024-02-26T03:03:03;1.20;;;1.10;;
11008;SDS011;5557;51.670;7.788;2024-02-26T03:05:33;1.90;;;1.13;;
11008;SDS011;5557;51.670;7.788;2024-02-26T03:08:01;3.73;;;1.17;;
11008;SDS011;5557;51.670;7.788;2024-02-26T03:10:28;1.43;;;1.33;;
11008;SDS011;5557;51.670;7.788;2024-02-26T03:12:55;0.80;;;0.80;;
11008;SDS011;5557;51.670;7.788;2024-02-26T03:15:22;1.20;;;1.07;;
11008;SDS011;5557;51.670;7.788;2024-02-26T03:17:51;1.53;;;1.43;;
11008;SDS011;5557;51.670;7.788;2024-02-26T03:20:19;1.33;;;1.23;;
11008;SDS011;5557;51.670;7.788;2024-02-26T03:22:47;1.37;;;1.27;;
11008;SDS011;5557;51.670;7.788;2024-02-26T03:25:14;1.10;;;1.00;;
11008;SDS011;5557;51.670;7.788;2024-02-26T03:27:41;1.13;;;1.03;;
11008;SDS011;5557;51.670;7.788;2024-02-26T03:30:08;1.40;;;0.97;;
11008;SDS011;5557;51.670;7.788;2024-02-26T03:32:39;3.00;;;1.40;;
11008;SDS011;5557;51.670;7.788;2024-02-26T03:35:10;1.20;;;1.10;;
11008;SDS011;5557;51.670;7.788;2024-02-26T03:37:37;1.43;;;1.33;;
11008;SDS011;5557;51.670;7.788;2024-02-26T03:40:07;1.87;;;1.20;;
11008;SDS011;5557;51.670;7.788;2024-02-26T03:42:34;1.10;;;1.00;;
11008;SDS011;5557;51.670;7.788;2024-02-26T03:45:06;1.00;;;0.90;;
11008;SDS011;5557;51.670;7.788;2024-02-26T03:47:33;2.93;;;1.00;;
11008;SDS011;5557;51.670;7.788;2024-02-26T03:50:06;1.57;;;1.37;;
11008;SDS011;5557;51.670;7.788;2024-02-26T03:52:38;1.40;;;1.30;;
11008;SDS011;5557;51.670;7.788;2024-02-26T03:55:06;1.23;;;1.13;;
11008;SDS011;5557;51.670;7.788;2024-02-26T03:57:34;1.20;;;1.10;;
11008;SDS011;5557;51.670;7.788;2024-02-26T04:00:04;1.53;;;1.30;;
11008;SDS011;5557;51.670;7.788;2024-02-26T04:02:33;1.47;;;1.30;;
11008;SDS011;5557;51.670;7.788;2024-02-26T04:05:00;1.27;;;1.17;;
11008;SDS011;5557;51.670;7.788;2024-02-26T04:07:27;1.40;;;1.20;;
11008;SDS011;5557;51.670;7.788;2024-02-26T04:09:56;1.90;;;1.70;;
11008;SDS011;5557;51.670;7.788;2024-02-26T04:12:24;1.47;;;1.37;;
11008;SDS011;5557;51.670;7.788;2024-02-26T04:15:07;2.80;;;1.17;;
11008;SDS011;5557;51.670;7.788;2024-02-26T04:17:37;1.40;;;1.30;;
11008;SDS011;5557;51.670;7.788;2024-02-26T04:20:06;1.43;;;1.33;;
11008;SDS011;5557;51.670;7.788;2024-02-26T04:22:35;1.50;;;1.40;;
11008;SDS011;5557;51.670;7.788;2024-02-26T04:25:09;1.73;;;1.10;;
11008;SDS011;5557;51.670;7.788;2024-02-26T04:27:36;1.33;;;1.23;;
11008;SDS011;5557;51.670;7.788;2024-02-26T04:30:06;1.40;;;1.30;;
11008;SDS011;5557;51.670;7.788;2024-02-26T04:32:35;1.10;;;1.00;;
11008;SDS011;5557;51.670;7.788;2024-02-26T04:35:03;1.33;;;1.23;;
11008;SDS011;5557;51.670;7.788;2024-02-26T04:37:47;2.60;;;1.47;;
11008;SDS011;5557;51.670;7.788;2024-02-26T04:40:15;1.40;;;1.30;;
11008;SDS011;5557;51.670;7.788;2024-02-26T04:42:43;1.30;;;1.20;;
11008;SDS011;5557;51.670;7.788;2024-02-26T04:45:10;1.90;;;1.70;;
11008;SDS011;5557;51.670;7.788;2024-02-26T04:47:41;1.30;;;1.20;;
11008;SDS011;5557;51.670;7.788;2024-02-26T04:50:12;1.93;;;1.60;;
11008;SDS011;5557;51.670;7.788;2024-02-26T04:52:43;1.47;;;1.37;;
11008;SDS011;5557;51.670;7.788;2024-02-26T04:55:20;1.73;;;1.33;;
11008;SDS011;5557;51.670;7.788;2024-02-26T04:57:47;1.53;;;1.43;;
11008;SDS011;5557;51.670;7.788;2024-02-26T05:00:14;1.47;;;1.37;;
11008;SDS011;5557;51.670;7.788;2024-02-26T05:02:41;1.57;;;1.47;;
11008;SDS011;5557;51.670;7.788;2024-02-26T05:05:09;1.40;;;1.30;;
11008;SDS011;5557;51.670;7.788;2024-02-26T05:07:40;1.33;;;1.23;;
11008;SDS011;5557;51.670;7.788;2024-02-26T05:10:11;2.40;;;1.70;;
11008;SDS011;5557;51.670;7.788;2024-02-26T05:12:38;1.20;;;1.10;;
11008;SDS011;5557;51.670;7.788;2024-02-26T05:15:07;1.40;;;1.30;;
11008;SDS011;5557;51.670;7.788;2024-02-26T05:17:36;1.70;;;1.53;;
11008;SDS011;5557;51.670;7.788;2024-02-26T05:20:04;1.60;;;1.50;;
11008;SDS011;5557;51.670;7.788;2024-02-26T05:22:35;1.60;;;1.50;;
11008;SDS011;5557;51.670;7.788;2024-02-26T05:25:03;1.73;;;1.63;;
11008;SDS011;5557;51.670;7.788;2024-02-26T05:27:31;2.00;;;1.90;;
11008;SDS011;5557;51.670;7.788;2024-02-26T05:29:58;1.30;;;1.20;;
11008;SDS011;5557;51.670;7.788;2024-02-26T05:32:25;1.57;;;1.47;;
11008;SDS011;5557;51.670;7.788;2024-02-26T05:34:53;1.37;;;1.27;;
11008;SDS011;5557;51.670;7.788;2024-02-26T05:37:20;1.40;;;1.30;;
11008;SDS011;5557;51.670;7.788;2024-02-26T05:39:47;1.53;;;1.43;;
11008;SDS011;5557;51.670;7.788;2024-02-26T05:42:17;1.60;;;1.50;;
11008;SDS011;5557;51.670;7.788;2024-02-26T05:45:03;1.63;;;1.53;;
11008;SDS011;5557;51.670;7.788;2024-02-26T05:47:34;1.67;;;1.57;;
11008;SDS011;5557;51.670;7.788;2024-02-26T05:50:09;1.87;;;1.77;;
11008;SDS011;5557;51.670;7.788;2024-02-26T05:52:49;3.23;;;2.37;;
11008;SDS011;5557;51.670;7.788;2024-02-26T05:55:39;1.33;;;1.23;;
11008;SDS011;5557;51.670;7.788;2024-02-26T05:58:07;1.63;;;1.53;;
11008;SDS011;5557;51.670;7.788;2024-02-26T06:00:36;1.57;;;1.47;;
11008;SDS011;5557;51.670;7.788;2024-02-26T06:03:03;1.77;;;1.67;;
11008;SDS011;5557;51.670;7.788;2024-02-26T06:05:33;1.60;;;1.50;;
11008;SDS011;5557;51.670;7.788;2024-02-26T06:08:02;1.57;;;1.47;;
11008;SDS011;5557;51.670;7.788;2024-02-26T06:10:33;1.63;;;1.53;;
11008;SDS011;5557;51.670;7.788;2024-02-26T06:13:23;1.47;;;1.37;;
11008;SDS011;5557;51.670;7.788;2024-02-26T06:15:54;1.70;;;1.60;;
11008;SDS011;5557;51.670;7.788;2024-02-26T06:18:59;1.60;;;1.50;;
11008;SDS011;5557;51.670;7.788;2024-02-26T06:21:33;1.80;;;1.70;;
11008;SDS011;5557;51.670;7.788;2024-02-26T06:24:03;2.80;;;1.90;;
11008;SDS011;5557;51.670;7.788;2024-02-26T06:26:35;1.60;;;1.50;;
11008;SDS011;5557;51.670;7.788;2024-02-26T06:29:02;3.00;;;2.90;;
11008;SDS011;5557;51.670;7.788;2024-02-26T06:31:29;3.07;;;2.77;;
11008;SDS011;5557;51.670;7.788;2024-02-26T06:33:57;5.73;;;3.57;;
11008;SDS011;5557;51.670;7.788;2024-02-26T06:36:26;2.50;;;2.40;;
11008;SDS011;5557;51.670;7.788;2024-02-26T06:38:54;2.50;;;1.60;;
11008;SDS011;5557;51.670;7.788;2024-02-26T06:41:23;1.63;;;1.53;;
11008;SDS011;5557;51.670;7.788;2024-02-26T06:43:55;1.77;;;1.67;;
11008;SDS011;5557;51.670;7.788;2024-02-26T06:46:22;1.60;;;1.50;;
11008;SDS011;5557;51.670;7.788;2024-02-26T06:48:49;1.70;;;1.60;;
11008;SDS011;5557;51.670;7.788;2024-02-26T06:51:21;2.13;;;1.73;;
11008;SDS011;5557;51.670;7.788;2024-02-26T06:53:49;1.83;;;1.73;;
11008;SDS011;5557;51.670;7.788;2024-02-26T06:56:17;2.10;;;2.00;;
11008;SDS011;5557;51.670;7.788;2024-02-26T06:58:45;2.30;;;2.20;;
11008;SDS011;5557;51.670;7.788;2024-02-26T07:01:14;2.07;;;1.90;;
11008;SDS011;5557;51.670;7.788;2024-02-26T07:03:44;2.10;;;1.90;;
11008;SDS011;5557;51.670;7.788;2024-02-26T07:06:16;1.90;;;1.80;;
11008;SDS011;5557;51.670;7.788;2024-02-26T07:08:43;2.37;;;2.27;;
11008;SDS011;5557;51.670;7.788;2024-02-26T07:11:12;1.93;;;1.83;;
11008;SDS011;5557;51.670;7.788;2024-02-26T07:13:40;1.60;;;1.50;;
11008;SDS011;5557;51.670;7.788;2024-02-26T07:16:08;1.90;;;1.80;;
11008;SDS011;5557;51.670;7.788;2024-02-26T07:18:37;1.50;;;1.40;;
11008;SDS011;5557;51.670;7.788;2024-02-26T07:21:06;2.10;;;1.90;;
11008;SDS011;5557;51.670;7.788;2024-02-26T07:23:34;2.37;;;2.20;;
11008;SDS011;5557;51.670;7.788;2024-02-26T07:26:02;1.53;;;1.43;;
11008;SDS011;5557;51.670;7.788;2024-02-26T07:28:29;1.50;;;1.40;;
11008;SDS011;5557;51.670;7.788;2024-02-26T07:30:56;1.77;;;1.67;;
11008;SDS011;5557;51.670;7.788;2024-02-26T07:33:24;1.40;;;1.30;;
11008;SDS011;5557;51.670;7.788;2024-02-26T07:35:52;1.87;;;1.77;;
11008;SDS011;5557;51.670;7.788;2024-02-26T07:38:20;2.13;;;2.03;;
11008;SDS011;5557;51.670;7.788;2024-02-26T07:41:07;1.57;;;1.47;;
11008;SDS011;5557;51.670;7.788;2024-02-26T07:43:36;1.73;;;1.63;;
11008;SDS011;5557;51.670;7.788;2024-02-26T07:46:04;1.70;;;1.60;;
11008;SDS011;5557;51.670;7.788;2024-02-26T07:48:32;2.17;;;2.07;;
11008;SDS011;5557;51.670;7.788;2024-02-26T07:51:00;2.00;;;1.90;;
11008;SDS011;5557;51.670;7.788;2024-02-26T07:53:29;2.83;;;1.83;;
11008;SDS011;5557;51.670;7.788;2024-02-26T07:55:58;2.90;;;2.27;;
11008;SDS011;5557;51.670;7.788;2024-02-26T07:58:26;3.77;;;3.47;;
11008;SDS011;5557;51.670;7.788;2024-02-26T08:00:55;5.73;;;5.33;;
11008;SDS011;5557;51.670;7.788;2024-02-26T08:03:22;4.23;;;4.03;;
11008;SDS011;5557;51.670;7.788;2024-02-26T08:05:50;3.60;;;3.50;;
11008;SDS011;5557;51.670;7.788;2024-02-26T08:08:19;4.43;;;4.23;;
11008;SDS011;5557;51.670;7.788;2024-02-26T08:10:46;2.27;;;2.17;;
11008;SDS011;5557;51.670;7.788;2024-02-26T08:13:14;1.60;;;1.50;;
11008;SDS011;5557;51.670;7.788;2024-02-26T08:15:41;1.77;;;1.67;;
11008;SDS011;5557;51.670;7.788;2024-02-26T08:18:09;1.60;;;1.50;;
11008;SDS011;5557;51.670;7.788;2024-02-26T08:20:49;1.60;;;1.50;;
11008;SDS011;5557;51.670;7.788;2024-02-26T08:23:17;2.43;;;1.87;;
11008;SDS011;5557;51.670;7.788;2024-02-26T08:25:44;3.47;;;3.27;;
11008;SDS011;5557;51.670;7.788;2024-02-26T08:28:11;2.03;;;1.93;;
11008;SDS011;5557;51.670;7.788;2024-02-26T08:30:39;4.30;;;1.60;;
11008;SDS011;5557;51.670;7.788;2024-02-26T08:33:08;1.63;;;1.53;;
11008;SDS011;5557;51.670;7.788;2024-02-26T08:35:36;1.80;;;1.70;;
11008;SDS011;5557;51.670;7.788;2024-02-26T08:38:03;1.70;;;1.60;;
11008;SDS011;5557;51.670;7.788;2024-02-26T08:40:31;1.70;;;1.60;;
11008;SDS011;5557;51.670;7.788;2024-02-26T08:42:57;1.63;;;1.53;;
11008;SDS011;5557;51.670;7.788;2024-02-26T08:45:24;2.53;;;1.43;;
11008;SDS011;5557;51.670;7.788;2024-02-26T08:47:56;8.90;;;1.43;;
11008;SDS011;5557;51.670;7.788;2024-02-26T08:50:26;3.10;;;2.80;;
11008;SDS011;5557;51.670;7.788;2024-02-26T08:52:53;2.03;;;1.93;;
11008;SDS011;5557;51.670;7.788;2024-02-26T08:55:20;1.80;;;1.70;;
11008;SDS011;5557;51.670;7.788;2024-02-26T08:57:47;1.33;;;1.23;;
11008;SDS011;5557;51.670;7.788;2024-02-26T09:00:15;1.47;;;1.37;;
11008;SDS011;5557;51.670;7.788;2024-02-26T09:02:44;5.90;;;1.73;;
11008;SDS011;5557;51.670;7.788;2024-02-26T09:05:11;5.77;;;1.40;;
11008;SDS011;5557;51.670;7.788;2024-02-26T09:07:38;6.00;;;1.40;;
11008;SDS011;5557;51.670;7.788;2024-02-26T09:10:07;1.50;;;1.40;;
11008;SDS011;5557;51.670;7.788;2024-02-26T09:12:38;1.60;;;1.50;;
11008;SDS011;5557;51.670;7.788;2024-02-26T09:15:07;1.70;;;1.60;;
11008;SDS011;5557;51.670;7.788;2024-02-26T09:17:37;1.50;;;1.40;;
11008;SDS011;5557;51.670;7.788;2024-02-26T09:20:06;3.23;;;1.47;;
11008;SDS011;5557;51.670;7.788;2024-02-26T09:22:36;1.67;;;1.57;;
11008;SDS011;5557;51.670;7.788;2024-02-26T09:25:04;2.00;;;1.80;;
11008;SDS011;5557;51.670;7.788;2024-02-26T09:27:32;3.67;;;2.07;;
11008;SDS011;5557;51.670;7.788;2024-02-26T09:29:59;2.00;;;1.90;;
11008;SDS011;5557;51.670;7.788;2024-02-26T09:32:28;4.90;;;2.03;;
11008;SDS011;5557;51.670;7.788;2024-02-26T09:34:57;2.00;;;1.90;;
11008;SDS011;5557;51.670;7.788;2024-02-26T09:37:24;1.90;;;1.80;;
11008;SDS011;5557;51.670;7.788;2024-02-26T09:39:54;2.53;;;2.40;;
11008;SDS011;5557;51.670;7.788;2024-02-26T09:42:21;2.03;;;1.93;;
11008;SDS011;5557;51.670;7.788;2024-02-26T09:44:53;2.23;;;2.13;;
11008;SDS011;5557;51.670;7.788;2024-02-26T09:47:24;2.67;;;2.57;;
11008;SDS011;5557;51.670;7.788;2024-02-26T09:49:53;3.07;;;2.87;;
11008;SDS011;5557;51.670;7.788;2024-02-26T09:52:23;3.20;;;3.03;;
11008;SDS011;5557;51.670;7.788;2024-02-26T09:54:52;4.73;;;4.33;;
11008;SDS011;5557;51.670;7.788;2024-02-26T09:57:19;5.47;;;4.70;;
11008;SDS011;5557;51.670;7.788;2024-02-26T09:59:48;4.13;;;3.93;;
11008;SDS011;5557;51.670;7.788;2024-02-26T10:02:17;3.37;;;3.07;;
11008;SDS011;5557;51.670;7.788;2024-02-26T10:04:47;2.67;;;2.57;;
11008;SDS011;5557;51.670;7.788;2024-02-26T10:07:18;2.77;;;2.57;;
11008;SDS011;5557;51.670;7.788;2024-02-26T10:09:45;2.23;;;2.13;;
11008;SDS011;5557;51.670;7.788;2024-02-26T10:12:12;2.50;;;2.30;;
11008;SDS011;5557;51.670;7.788;2024-02-26T10:14:44;3.20;;;2.90;;
11008;SDS011;5557;51.670;7.788;2024-02-26T10:17:11;2.73;;;2.20;;
11008;SDS011;5557;51.670;7.788;2024-02-26T10:19:39;2.87;;;2.67;;
11008;SDS011;5557;51.670;7.788;2024-02-26T10:22:06;3.40;;;3.10;;
11008;SDS011;5557;51.670;7.788;2024-02-26T10:24:33;2.80;;;2.60;;
11008;SDS011;5557;51.670;7.788;2024-02-26T10:27:03;3.30;;;3.20;;
11008;SDS011;5557;51.670;7.788;2024-02-26T10:29:36;3.43;;;3.23;;
11008;SDS011;5557;51.670;7.788;2024-02-26T10:32:03;2.87;;;2.77;;
11008;SDS011;5557;51.670;7.788;2024-02-26T10:34:37;4.70;;;3.00;;
11008;SDS011;5557;51.670;7.788;2024-02-26T10:37:22;3.27;;;2.97;;
11008;SDS011;5557;51.670;7.788;2024-02-26T10:39:52;3.30;;;3.07;;
11008;SDS011;5557;51.670;7.788;2024-02-26T10:42:19;3.87;;;3.47;;
11008;SDS011;5557;51.670;7.788;2024-02-26T10:44:46;3.53;;;3.23;;
11008;SDS011;5557;51.670;7.788;2024-02-26T10:47:15;3.73;;;3.27;;
11008;SDS011;5557;51.670;7.788;2024-02-26T10:49:46;3.73;;;2.80;;
11008;SDS011;5557;51.670;7.788;2024-02-26T10:52:17;7.17;;;3.63;;
11008;SDS011;5557;51.670;7.788;2024-02-26T10:54:47;5.67;;;3.87;;
11008;SDS011;5557;51.670;7.788;2024-02-26T10:57:17;4.27;;;3.87;;
11008;SDS011;5557;51.670;7.788;2024-02-26T10:59:45;5.20;;;4.20;;
11008;SDS011;5557;51.670;7.788;2024-02-26T11:02:14;4.30;;;3.80;;
11008;SDS011;5557;51.670;7.788;2024-02-26T11:04:42;3.87;;;3.57;;
11008;SDS011;5557;51.670;7.788;2024-02-26T11:07:09;4.60;;;4.30;;
11008;SDS011;5557;51.670;7.788;2024-02-26T11:09:37;6.10;;;5.10;;
11008;SDS011;5557;51.670;7.788;2024-02-26T11:12:12;9.00;;;5.77;;
11008;SDS011;5557;51.670;7.788;2024-02-26T11:14:41;4.90;;;4.60;;
11008;SDS011;5557;51.670;7.788;2024-02-26T11:17:12;5.60;;;4.97;;
11008;SDS011;5557;51.670;7.788;2024-02-26T11:19:44;5.57;;;5.07;;
11008;SDS011;5557;51.670;7.788;2024-02-26T11:22:12;6.63;;;5.30;;
11008;SDS011;5557;51.670;7.788;2024-02-26T11:24:50;8.13;;;5.70;;
11008;SDS011;5557;51.670;7.788;2024-02-26T11:27:18;6.07;;;5.57;;
11008;SDS011;5557;51.670;7.788;2024-02-26T11:29:50;6.50;;;5.90;;
11008;SDS011;5557;51.670;7.788;2024-02-26T11:32:23;7.50;;;5.97;;
11008;SDS011;5557;51.670;7.788;2024-02-26T11:34:51;6.63;;;5.93;;
11008;SDS011;5557;51.670;7.788;2024-02-26T11:37:23;6.50;;;5.90;;
11008;SDS011;5557;51.670;7.788;2024-02-26T11:39:51;6.20;;;5.80;;
11008;SDS011;5557;51.670;7.788;2024-02-26T11:42:22;7.20;;;6.60;;
11008;SDS011;5557;51.670;7.788;2024-02-26T11:44:51;7.20;;;6.50;;
11008;SDS011;5557;51.670;7.788;2024-02-26T11:47:20;7.73;;;6.80;;
11008;SDS011;5557;51.670;7.788;2024-02-26T11:49:49;6.97;;;6.07;;
11008;SDS011;5557;51.670;7.788;2024-02-26T11:52:16;6.73;;;6.10;;
11008;SDS011;5557;51.670;7.788;2024-02-26T11:54:50;6.53;;;6.00;;
11008;SDS011;5557;51.670;7.788;2024-02-26T12:00:14;6.00;;;5.60;;
11008;SDS011;5557;51.670;7.788;2024-02-26T12:02:52;6.20;;;5.70;;
11008;SDS011;5557;51.670;7.788;2024-02-26T12:05:32;5.80;;;5.30;;
11008;SDS011;5557;51.670;7.788;2024-02-26T12:08:03;6.07;;;5.63;;
11008;SDS011;5557;51.670;7.788;2024-02-26T12:10:36;5.50;;;5.07;;
11008;SDS011;5557;51.670;7.788;2024-02-26T12:13:15;5.80;;;5.30;;
11008;SDS011;5557;51.670;7.788;2024-02-26T12:18:25;6.07;;;5.67;;
11008;SDS011;5557;51.670;7.788;2024-02-26T12:21:02;6.43;;;5.83;;
11008;SDS011;5557;51.670;7.788;2024-02-26T12:23:31;5.23;;;4.93;;
11008;SDS011;5557;51.670;7.788;2024-02-26T12:25:59;6.00;;;5.50;;
11008;SDS011;5557;51.670;7.788;2024-02-26T12:28:31;5.63;;;5.13;;
11008;SDS011;5557;51.670;7.788;2024-02-26T12:30:58;6.13;;;5.27;;
11008;SDS011;5557;51.670;7.788;2024-02-26T12:33:27;5.50;;;5.10;;
11008;SDS011;5557;51.670;7.788;2024-02-26T12:35:55;5.37;;;4.83;;
11008;SDS011;5557;51.670;7.788;2024-02-26T12:38:23;5.67;;;5.17;;
11008;SDS011;5557;51.670;7.788;2024-02-26T12:40:50;5.27;;;4.77;;
11008;SDS011;5557;51.670;7.788;2024-02-26T12:43:18;5.53;;;5.00;;
11008;SDS011;5557;51.670;7.788;2024-02-26T12:45:45;5.90;;;5.30;;
11008;SDS011;5557;51.670;7.788;2024-02-26T12:48:14;13.70;;;4.60;;
11008;SDS011;5557;51.670;7.788;2024-02-26T12:50:48;5.00;;;4.70;;
11008;SDS011;5557;51.670;7.788;2024-02-26T12:53:17;5.20;;;4.70;;
11008;SDS011;5557;51.670;7.788;2024-02-26T12:55:47;4.33;;;4.13;;
11008;SDS011;5557;51.670;7.788;2024-02-26T12:58:17;5.33;;;5.03;;
11008;SDS011;5557;51.670;7.788;2024-02-26T13:00:46;4.60;;;4.40;;
11008;SDS011;5557;51.670;7.788;2024-02-26T13:03:15;4.87;;;4.43;;
11008;SDS011;5557;51.670;7.788;2024-02-26T13:05:43;5.60;;;5.27;;
11008;SDS011;5557;51.670;7.788;2024-02-26T13:08:17;12.07;;;5.63;;
11008;SDS011;5557;51.670;7.788;2024-02-26T13:10:45;7.90;;;5.10;;
11008;SDS011;5557;51.670;7.788;2024-02-26T13:13:16;5.67;;;5.17;;
11008;SDS011;5557;51.670;7.788;2024-02-26T13:15:44;6.60;;;6.10;;
11008;SDS011;5557;51.670;7.788;2024-02-26T13:18:14;16.47;;;6.67;;
11008;SDS011;5557;51.670;7.788;2024-02-26T13:20:42;6.13;;;5.20;;
11008;SDS011;5557;51.670;7.788;2024-02-26T13:23:11;5.77;;;5.37;;
11008;SDS011;5557;51.670;7.788;2024-02-26T13:25:56;6.00;;;5.70;;
11008;SDS011;5557;51.670;7.788;2024-02-26T13:28:24;6.00;;;5.47;;
11008;SDS011;5557;51.670;7.788;2024-02-26T13:30:54;5.80;;;5.37;;
11008;SDS011;5557;51.670;7.788;2024-02-26T13:33:24;9.10;;;6.07;;
11008;SDS011;5557;51.670;7.788;2024-02-26T13:35:57;5.80;;;5.30;;
11008;SDS011;5557;51.670;7.788;2024-02-26T13:38:27;5.13;;;4.83;;
11008;SDS011;5557;51.670;7.788;2024-02-26T13:40:55;14.50;;;6.43;;
11008;SDS011;5557;51.670;7.788;2024-02-26T13:43:26;6.67;;;6.17;;
11008;SDS011;5557;51.670;7.788;2024-02-26T13:45:53;8.03;;;5.60;;
11008;SDS011;5557;51.670;7.788;2024-02-26T13:48:27;6.53;;;5.93;;
11008;SDS011;5557;51.670;7.788;2024-02-26T13:50:55;6.00;;;5.60;;
11008;SDS011;5557;51.670;7.788;2024-02-26T13:53:22;5.60;;;5.30;;
11008;SDS011;5557;51.670;7.788;2024-02-26T13:55:50;5.50;;;5.20;;
11008;SDS011;5557;51.670;7.788;2024-02-26T13:58:17;6.40;;;5.90;;
11008;SDS011;5557;51.670;7.788;2024-02-26T14:00:49;5.70;;;5.30;;
11008;SDS011;5557;51.670;7.788;2024-02-26T14:03:17;6.77;;;4.97;;
11008;SDS011;5557;51.670;7.788;2024-02-26T14:05:45;6.13;;;5.63;;
11008;SDS011;5557;51.670;7.788;2024-02-26T14:08:14;5.83;;;5.27;;
11008;SDS011;5557;51.670;7.788;2024-02-26T14:10:43;5.23;;;4.80;;
11008;SDS011;5557;51.670;7.788;2024-02-26T14:13:10;4.60;;;4.30;;
11008;SDS011;5557;51.670;7.788;2024-02-26T14:15:37;7.20;;;4.90;;
11008;SDS011;5557;51.670;7.788;2024-02-26T14:18:06;5.23;;;4.73;;
11008;SDS011;5557;51.670;7.788;2024-02-26T14:20:34;4.97;;;4.57;;
11008;SDS011;5557;51.670;7.788;2024-02-26T14:23:03;7.27;;;5.67;;
11008;SDS011;5557;51.670;7.788;2024-02-26T14:25:32;5.17;;;4.47;;
11008;SDS011;5557;51.670;7.788;2024-02-26T14:27:59;4.77;;;4.47;;
11008;SDS011;5557;51.670;7.788;2024-02-26T14:30:26;4.67;;;4.37;;
11008;SDS011;5557;51.670;7.788;2024-02-26T14:32:54;4.37;;;4.07;;
11008;SDS011;5557;51.670;7.788;2024-02-26T14:35:22;3.80;;;3.47;;
11008;SDS011;5557;51.670;7.788;2024-02-26T14:37:52;4.90;;;4.67;;
11008;SDS011;5557;51.670;7.788;2024-02-26T14:40:20;8.40;;;3.83;;
11008;SDS011;5557;51.670;7.788;2024-02-26T14:42:47;4.23;;;3.93;;
11008;SDS011;5557;51.670;7.788;2024-02-26T14:45:15;4.10;;;3.90;;
11008;SDS011;5557;51.670;7.788;2024-02-26T14:47:43;4.00;;;3.70;;
11008;SDS011;5557;51.670;7.788;2024-02-26T14:50:11;4.13;;;3.83;;
11008;SDS011;5557;51.670;7.788;2024-02-26T14:52:38;3.60;;;3.30;;
11008;SDS011;5557;51.670;7.788;2024-02-26T14:55:08;3.47;;;3.37;;
11008;SDS011;5557;51.670;7.788;2024-02-26T14:57:36;2.97;;;2.77;;
11008;SDS011;5557;51.670;7.788;2024-02-26T15:00:03;3.40;;;3.20;;
11008;SDS011;5557;51.670;7.788;2024-02-26T15:02:37;5.40;;;2.77;;
11008;SDS011;5557;51.670;7.788;2024-02-26T15:05:05;3.40;;;3.20;;
11008;SDS011;5557;51.670;7.788;2024-02-26T15:07:41;3.37;;;3.17;;
11008;SDS011;5557;51.670;7.788;2024-02-26T15:10:09;2.90;;;2.80;;
11008;SDS011;5557;51.670;7.788;2024-02-26T15:12:36;3.07;;;2.87;;
11008;SDS011;5557;51.670;7.788;2024-02-26T15:15:04;3.53;;;3.33;;
11008;SDS011;5557;51.670;7.788;2024-02-26T15:17:34;6.80;;;3.00;;
11008;SDS011;5557;51.670;7.788;2024-02-26T15:20:03;3.93;;;3.47;;